Time;durP1;ratioP1;P1;durP2;ratioP2;P2;SDS_P1;SDS_P2;PMS_P1;PMS_P2;Temp;Humidity;BMP_temperature;BMP_pressure;BME280_temperature;BME280_humidity;BME280_pressure;Samples;Min_cycle;Max_cycle;Signal;HPM_P1;HPM_P2
2023/04/22 00:01:25;;;;;;;12.95;10.43;;;;;;;9.74;83.09;100849.25;5000061;28;20393;-76
2023/04/22 00:03:50;;;;;;;13.93;10.63;;;;;;;9.71;83.38;100848.53;4998654;28;20042;-76
2023/04/22 00:06:17;;;;;;;10.32;9.32;;;;;;;9.69;83.19;100850.34;5000071;28;20050;-76
2023/04/22 00:08:42;;;;;;;11.50;9.98;;;;;;;9.65;83.03;100849.59;4999605;28;20100;-76
2023/04/22 00:11:07;;;;;;;10.38;9.35;;;;;;;9.63;82.89;100856.66;4999355;28;20273;-76
2023/04/22 00:13:33;;;;;;;11.52;9.88;;;;;;;9.60;83.08;100848.91;4999335;28;20042;-76
2023/04/22 00:15:58;;;;;;;10.60;9.55;;;;;;;9.56;82.94;100845.56;4998767;28;20044;-76
2023/04/22 00:18:23;;;;;;;11.25;9.82;;;;;;;9.53;83.16;100844.81;5000059;28;20038;-76
2023/04/22 00:20:49;;;;;;;10.63;9.63;;;;;;;9.50;82.95;100847.56;4999679;28;20053;-76
2023/04/22 00:23:14;;;;;;;11.88;9.23;;;;;;;9.46;82.87;100849.44;4998329;28;20391;-76
2023/04/22 00:25:40;;;;;;;9.70;8.77;;;;;;;9.45;83.00;100846.88;4998240;28;20054;-76
2023/04/22 00:28:05;;;;;;;10.48;9.27;;;;;;;9.40;83.10;100847.91;4999451;28;20042;-76
2023/04/22 00:30:31;;;;;;;10.18;8.77;;;;;;;9.37;82.74;100842.75;4998402;28;20363;-76
2023/04/22 00:32:56;;;;;;;9.90;8.93;;;;;;;9.34;82.99;100840.25;4999031;28;20058;-76
2023/04/22 00:35:22;;;;;;;13.80;8.85;;;;;;;9.31;82.88;100836.91;4999189;28;20030;-76
2023/04/22 00:37:47;;;;;;;9.05;8.10;;;;;;;9.27;82.90;100833.53;4999389;28;20042;-76
2023/04/22 00:40:13;;;;;;;9.98;8.27;;;;;;;9.25;83.04;100840.56;4999627;28;20046;-76
2023/04/22 00:42:40;;;;;;;9.15;8.32;;;;;;;9.23;83.01;100834.56;4998866;28;20053;-76
2023/04/22 00:45:10;;;;;;;8.35;7.55;;;;;;;9.20;83.01;100837.28;4999012;28;20046;-76
2023/04/22 00:47:35;;;;;;;8.32;7.55;;;;;;;9.17;82.67;100843.47;4999050;28;20058;-76
2023/04/22 00:50:01;;;;;;;8.77;7.88;;;;;;;9.15;83.16;100844.41;4998194;28;20033;-76
2023/04/22 00:52:27;;;;;;;8.25;7.32;;;;;;;9.12;83.04;100842.78;4999595;28;20097;-76
2023/04/22 00:54:53;;;;;;;9.15;8.25;;;;;;;9.08;83.08;100843.78;4997351;28;20030;-75
2023/04/22 00:57:18;;;;;;;9.60;8.48;;;;;;;9.07;83.13;100849.91;4997853;28;20035;-76
2023/04/22 00:59:44;;;;;;;12.10;8.90;;;;;;;9.05;82.80;100845.66;4995572;28;20046;-76
2023/04/22 01:02:10;;;;;;;10.88;9.57;;;;;;;9.02;82.98;100857.91;4997785;28;20076;-76
2023/04/22 01:04:36;;;;;;;10.90;9.80;;;;;;;9.01;83.06;100857.97;4977685;28;20139;-76
2023/04/22 01:07:01;;;;;;;11.13;9.80;;;;;;;8.98;82.93;100848.44;4979582;28;20040;-76
2023/04/22 01:09:27;;;;;;;10.77;9.50;;;;;;;8.96;83.12;100846.81;4995751;28;20050;-76
2023/04/22 01:11:53;;;;;;;11.57;10.38;;;;;;;8.94;82.91;100849.47;4998797;28;20038;-76
2023/04/22 01:14:18;;;;;;;11.55;10.18;;;;;;;8.92;82.90;100851.28;4998539;28;20113;-76
2023/04/22 01:16:44;;;;;;;11.40;9.68;;;;;;;8.91;83.02;100849.56;4980959;28;20030;-76
2023/04/22 01:19:10;;;;;;;10.65;9.63;;;;;;;8.88;83.12;100844.47;4997993;28;20041;-76
2023/04/22 01:21:38;;;;;;;12.40;10.10;;;;;;;8.86;82.97;100843.66;4998175;28;20042;-76
2023/04/22 01:24:04;;;;;;;12.65;9.32;;;;;;;8.82;83.23;100834.19;4998367;28;20037;-76
2023/04/22 01:26:30;;;;;;;11.07;9.98;;;;;;;8.81;83.33;100837.75;4997607;28;20038;-76
2023/04/22 01:28:55;;;;;;;10.90;9.80;;;;;;;8.79;83.28;100843.00;4998223;28;20046;-76
2023/04/22 01:31:21;;;;;;;11.45;10.27;;;;;;;8.78;83.43;100840.44;4998256;28;20046;-76
2023/04/22 01:33:47;;;;;;;11.38;10.18;;;;;;;8.75;83.43;100840.53;4997678;28;20031;-76
2023/04/22 01:36:12;;;;;;;10.52;9.52;;;;;;;8.73;83.22;100837.13;4998681;28;20026;-76
2023/04/22 01:38:39;;;;;;;9.95;9.05;;;;;;;8.71;83.34;100836.31;4997819;28;20053;-76
2023/04/22 01:41:05;;;;;;;9.85;8.95;;;;;;;8.68;83.09;100839.03;4998602;28;20046;-76
2023/04/22 01:43:31;;;;;;;8.85;8.05;;;;;;;8.64;83.21;100831.31;4998104;28;20034;-76
2023/04/22 01:45:56;;;;;;;9.45;8.43;;;;;;;8.63;83.40;100837.44;4996742;28;20068;-76
2023/04/22 01:48:22;;;;;;;9.20;8.40;;;;;;;8.60;83.22;100837.53;4998166;28;20038;-76
2023/04/22 01:50:48;;;;;;;9.70;8.75;;;;;;;8.58;83.35;100834.09;4997010;28;20052;-76
2023/04/22 01:53:13;;;;;;;9.63;8.73;;;;;;;8.57;83.15;100842.00;4998192;28;20355;-76
2023/04/22 01:55:38;;;;;;;10.27;9.27;;;;;;;8.55;83.56;100839.44;4994124;28;20042;-76
2023/04/22 01:58:04;;;;;;;9.73;8.82;;;;;;;8.54;83.21;100837.72;4996736;28;20062;-75
2023/04/22 02:00:30;;;;;;;9.93;8.98;;;;;;;8.52;83.45;100836.94;4996411;28;20049;-76
2023/04/22 02:02:55;;;;;;;10.98;9.15;;;;;;;8.49;83.45;100828.34;4997662;28;20034;-76
2023/04/22 02:05:20;;;;;;;9.75;8.80;;;;;;;8.45;83.33;100833.66;4996569;28;20073;-76
2023/04/22 02:07:46;;;;;;;9.85;8.85;;;;;;;8.43;83.42;100835.47;4996461;28;20042;-76
2023/04/22 02:10:11;;;;;;;10.30;9.30;;;;;;;8.41;83.57;100834.63;4998275;28;20092;-75
2023/04/22 02:12:37;;;;;;;10.40;9.30;;;;;;;8.40;83.53;100834.66;4997348;28;20351;-76
2023/04/22 02:15:03;;;;;;;11.63;10.13;;;;;;;8.37;83.37;100825.19;4998141;28;20360;-75
2023/04/22 02:17:28;;;;;;;14.85;11.85;;;;;;;8.37;83.29;100833.03;4997618;28;20041;-76
2023/04/22 02:19:54;;;;;;;12.32;10.82;;;;;;;8.35;83.48;100832.22;4998009;28;20041;-76
2023/04/22 02:22:21;;;;;;;14.63;12.18;;;;;;;8.35;83.35;100831.34;4996445;28;20081;-75
2023/04/22 02:24:46;;;;;;;15.52;12.13;;;;;;;8.33;83.76;100826.19;4997381;28;20269;-75
2023/04/22 02:27:11;;;;;;;12.52;11.18;;;;;;;8.31;83.65;100822.75;4996882;28;20053;-76
2023/04/22 02:29:37;;;;;;;11.95;10.77;;;;;;;8.29;83.69;100824.56;4997550;28;20054;-76
2023/04/22 02:32:02;;;;;;;12.77;10.75;;;;;;;8.27;83.86;100826.38;4996583;28;20074;-76
2023/04/22 02:34:28;;;;;;;13.98;11.15;;;;;;;8.25;83.55;100822.97;5000471;28;20337;-76
2023/04/22 02:36:53;;;;;;;12.00;10.70;;;;;;;8.22;83.99;100821.31;5001340;28;20046;-76
2023/04/22 02:39:18;;;;;;;11.23;10.07;;;;;;;8.21;83.75;100818.75;5000137;28;20042;-76
2023/04/22 02:41:44;;;;;;;12.15;10.25;;;;;;;8.19;83.78;100817.94;5001792;28;20038;-76
2023/04/22 02:44:09;;;;;;;13.30;10.98;;;;;;;8.17;83.83;100823.22;5001702;28;20101;-76
2023/04/22 02:46:35;;;;;;;26.05;16.88;;;;;;;8.15;84.01;100822.41;5000412;28;20218;-77
2023/04/22 02:49:00;;;;;;;16.77;13.38;;;;;;;8.15;84.54;100821.53;5001905;28;20173;-77
2023/04/22 02:51:26;;;;;;;15.93;13.10;;;;;;;8.14;84.67;100819.84;5001355;28;20324;-77
2023/04/22 02:53:52;;;;;;;18.13;13.98;;;;;;;8.13;84.99;100811.16;5001133;28;20064;-77
2023/04/22 02:56:17;;;;;;;16.73;13.32;;;;;;;8.14;84.89;100809.41;5000465;28;20113;-77
2023/04/22 02:58:43;;;;;;;18.35;13.80;;;;;;;8.13;84.88;100800.72;5001392;28;20342;-77
2023/04/22 03:01:08;;;;;;;16.17;13.23;;;;;;;8.13;84.91;100795.53;5002342;28;20045;-74
2023/04/22 03:03:34;;;;;;;18.63;13.63;;;;;;;8.12;84.64;100793.78;5002256;28;20050;-74
2023/04/22 03:05:59;;;;;;;17.05;13.07;;;;;;;8.10;84.79;100789.53;5002238;28;20374;-74
2023/04/22 03:08:25;;;;;;;15.65;12.70;;;;;;;8.10;84.63;100798.22;4994473;28;20277;-74
2023/04/22 03:10:50;;;;;;;16.73;14.02;;;;;;;8.08;84.76;100787.81;5000633;28;20114;-74
2023/04/22 03:13:15;;;;;;;16.77;13.68;;;;;;;8.10;85.07;100792.16;5001139;28;20045;-74
2023/04/22 03:15:41;;;;;;;18.17;14.80;;;;;;;8.08;84.86;100785.22;5002001;28;20317;-74
2023/04/22 03:18:06;;;;;;;21.33;15.75;;;;;;;8.08;84.92;100785.22;5001984;28;20042;-74
2023/04/22 03:20:32;;;;;;;21.73;15.57;;;;;;;8.08;84.87;100780.00;5001677;28;20318;-74
2023/04/22 03:22:57;;;;;;;19.65;15.00;;;;;;;8.08;84.89;100785.22;4984932;28;20032;-75
2023/04/22 03:25:23;;;;;;;19.88;15.82;;;;;;;8.08;84.94;100776.53;4984178;28;20041;-75
2023/04/22 03:27:48;;;;;;;17.75;15.43;;;;;;;8.08;85.04;100768.72;5001896;28;20297;-74
2023/04/22 03:30:14;;;;;;;19.55;15.73;;;;;;;8.07;84.93;100770.44;5000932;28;20038;-74
2023/04/22 03:32:39;;;;;;;21.23;16.23;;;;;;;8.08;84.93;100773.94;4978046;28;20066;-74
2023/04/22 03:35:05;;;;;;;20.15;15.35;;;;;;;8.08;84.94;100771.31;4998495;28;20257;-74
2023/04/22 03:37:30;;;;;;;18.65;14.60;;;;;;;8.08;84.65;100771.31;5001437;28;20100;-74
2023/04/22 03:39:56;;;;;;;19.92;15.55;;;;;;;8.07;84.69;100772.22;5000811;28;20042;-75
2023/04/22 03:42:21;;;;;;;19.02;15.15;;;;;;;8.08;84.67;100766.94;5001882;28;20368;-75
2023/04/22 03:44:46;;;;;;;19.23;14.73;;;;;;;8.06;84.52;100763.53;5001649;28;20358;-75
2023/04/22 03:47:12;;;;;;;18.08;14.65;;;;;;;8.07;84.76;100761.78;4981277;28;20302;-75
2023/04/22 03:49:37;;;;;;;17.95;14.18;;;;;;;8.06;84.73;100760.09;4982066;28;20111;-75
2023/04/22 03:52:02;;;;;;;19.60;14.60;;;;;;;8.05;84.69;100751.38;4994822;28;20125;-75
2023/04/22 03:54:28;;;;;;;18.58;15.05;;;;;;;8.04;84.78;100751.44;5001621;28;20041;-75
2023/04/22 03:56:54;;;;;;;16.58;13.80;;;;;;;8.03;84.58;100752.34;5001055;28;20030;-74
2023/04/22 03:59:19;;;;;;;16.70;13.93;;;;;;;8.02;84.63;100748.91;5001674;28;20042;-74
2023/04/22 04:01:46;;;;;;;17.83;14.50;;;;;;;8.01;84.69;100734.13;5001497;28;20050;-75
2023/04/22 04:04:11;;;;;;;18.23;14.52;;;;;;;8.02;84.61;100734.97;4984813;28;20038;-75
2023/04/22 04:06:36;;;;;;;19.20;15.00;;;;;;;8.00;84.84;100735.03;4989781;28;20049;-74
2023/04/22 04:09:02;;;;;;;19.15;14.38;;;;;;;8.00;84.78;100737.63;5001025;28;20040;-74
2023/04/22 04:11:28;;;;;;;19.35;14.45;;;;;;;8.00;84.84;100734.19;5000915;28;20049;-75
2023/04/22 04:13:53;;;;;;;17.30;13.90;;;;;;;8.00;84.69;100739.41;5000819;28;20154;-75
2023/04/22 04:16:19;;;;;;;18.67;14.50;;;;;;;8.00;84.78;100729.81;4999811;28;20269;-74
2023/04/22 04:18:44;;;;;;;17.38;14.32;;;;;;;8.00;84.68;100731.56;4983411;28;20034;-75
2023/04/22 04:21:09;;;;;;;18.15;14.27;;;;;;;8.00;84.79;100728.97;4987166;28;20047;-75
2023/04/22 04:23:35;;;;;;;20.25;14.93;;;;;;;7.99;84.72;100733.34;4999044;28;20065;-75
2023/04/22 04:26:01;;;;;;;16.23;13.38;;;;;;;7.99;84.78;100727.28;5000840;28;20328;-75
2023/04/22 04:28:31;;;;;;;16.98;14.50;;;;;;;7.98;84.72;100730.78;5001343;28;20452;-75
2023/04/22 04:30:56;;;;;;;17.88;14.15;;;;;;;7.97;84.84;100732.53;5000911;28;20042;-75
2023/04/22 04:33:22;;;;;;;16.33;13.68;;;;;;;7.98;84.72;100722.94;5000349;28;20312;-75
2023/04/22 04:35:47;;;;;;;15.68;12.93;;;;;;;7.96;84.88;100723.00;4999330;28;20068;-75
2023/04/22 04:38:13;;;;;;;18.35;13.25;;;;;;;7.96;84.63;100724.75;4999670;28;20037;-75
2023/04/22 04:40:38;;;;;;;14.35;12.70;;;;;;;7.96;84.67;100723.00;4999049;28;20045;-74
2023/04/22 04:43:07;;;;;;;15.52;12.85;;;;;;;7.95;84.72;100716.09;5000616;28;20258;-74
2023/04/22 04:45:35;;;;;;;16.95;13.32;;;;;;;7.95;84.84;100723.03;4998691;28;20345;-75
2023/04/22 04:48:01;;;;;;;14.15;12.65;;;;;;;7.95;84.80;100723.03;4999353;28;20049;-75
2023/04/22 04:50:27;;;;;;;15.77;12.15;;;;;;;7.94;84.58;100708.31;4998732;28;20218;-75
2023/04/22 04:52:53;;;;;;;16.98;14.02;;;;;;;7.94;84.82;100711.75;4998650;28;20041;-74
2023/04/22 04:55:18;;;;;;;17.35;13.40;;;;;;;7.95;84.89;100707.41;4999461;28;20054;-74
2023/04/22 04:57:44;;;;;;;14.70;12.75;;;;;;;7.95;84.79;100712.59;5000458;28;20199;-74
2023/04/22 05:00:10;;;;;;;14.35;12.32;;;;;;;7.95;85.01;100708.28;4999224;28;20030;-74
2023/04/22 05:02:36;;;;;;;17.95;13.75;;;;;;;7.96;84.89;100702.13;4998127;28;20069;-74
2023/04/22 05:05:01;;;;;;;14.30;12.55;;;;;;;7.97;84.97;100708.22;4998922;28;20038;-74
2023/04/22 05:07:27;;;;;;;14.80;12.68;;;;;;;7.97;85.10;100703.00;4998134;28;20061;-74
2023/04/22 05:09:53;;;;;;;13.63;11.77;;;;;;;7.98;85.18;100704.69;5000268;28;20042;-74
2023/04/22 05:12:18;;;;;;;13.60;12.02;;;;;;;8.00;85.04;100715.94;4999717;28;20030;-74
2023/04/22 05:14:45;;;;;;;14.63;11.88;;;;;;;8.00;85.20;100710.72;5000019;28;20042;-74
2023/04/22 05:17:11;;;;;;;17.40;13.60;;;;;;;8.00;84.94;100708.09;4981991;28;20034;-74
2023/04/22 05:19:36;;;;;;;13.93;12.20;;;;;;;8.02;85.21;100714.13;5000261;28;20256;-74
2023/04/22 05:22:02;;;;;;;13.88;12.48;;;;;;;8.02;85.01;100706.28;5000566;28;20042;-74
2023/04/22 05:24:27;;;;;;;15.48;11.95;;;;;;;8.02;85.20;100708.91;5000059;28;20033;-74
2023/04/22 05:26:53;;;;;;;11.95;10.63;;;;;;;8.04;85.38;100727.97;4999794;28;20050;-74
2023/04/22 05:29:18;;;;;;;13.55;11.63;;;;;;;8.04;85.28;100730.56;5000064;28;20061;-74
2023/04/22 05:31:43;;;;;;;13.30;11.70;;;;;;;8.05;85.07;100729.69;4982063;28;20304;-74
2023/04/22 05:34:10;;;;;;;13.35;11.52;;;;;;;8.06;85.23;100728.78;4999876;28;20093;-74
2023/04/22 05:36:36;;;;;;;12.25;10.95;;;;;;;8.07;85.45;100733.09;4997194;28;20049;-75
2023/04/22 05:39:01;;;;;;;14.35;11.85;;;;;;;8.08;85.30;100734.81;4995242;28;20046;-75
2023/04/22 05:41:26;;;;;;;12.32;10.75;;;;;;;8.09;85.46;100733.88;4997895;28;20032;-75
2023/04/22 05:43:52;;;;;;;13.25;11.05;;;;;;;8.10;85.29;100733.00;4998020;28;20045;-75
2023/04/22 05:46:17;;;;;;;11.63;10.15;;;;;;;8.11;85.33;100737.28;4999265;28;20382;-75
2023/04/22 05:48:43;;;;;;;11.82;10.70;;;;;;;8.12;85.58;100732.97;4997579;28;20118;-75
2023/04/22 05:51:08;;;;;;;12.48;10.88;;;;;;;8.14;85.50;100736.38;4999448;28;20061;-75
2023/04/22 05:53:33;;;;;;;11.00;9.90;;;;;;;8.14;85.87;100734.59;4978341;28;20035;-75
2023/04/22 05:55:59;;;;;;;12.98;11.50;;;;;;;8.16;85.48;100726.72;4982497;28;20042;-75
2023/04/22 05:58:24;;;;;;;23.20;16.65;;;;;;;8.16;85.43;100719.75;4998690;28;20369;-75
2023/04/22 06:00:50;;;;;;;13.63;12.20;;;;;;;8.18;85.86;100723.16;4981158;28;20050;-75
2023/04/22 06:03:15;;;;;;;13.27;10.90;;;;;;;8.19;86.68;100716.22;4999507;28;20054;-75
2023/04/22 06:05:42;;;;;;;14.77;12.18;;;;;;;8.20;86.12;100700.47;4998399;28;20034;-75
2023/04/22 06:08:07;;;;;;;13.30;11.68;;;;;;;8.22;86.31;100708.25;4997264;28;20117;-75
2023/04/22 06:10:32;;;;;;;14.77;12.55;;;;;;;8.22;86.35;100703.91;4973999;28;20074;-75
2023/04/22 06:12:58;;;;;;;14.15;12.05;;;;;;;8.24;86.58;100709.94;4998034;28;20257;-75
2023/04/22 06:15:24;;;;;;;15.57;12.10;;;;;;;8.25;86.72;100701.19;4997373;28;20057;-75
2023/04/22 06:17:49;;;;;;;13.57;11.95;;;;;;;8.26;86.79;100704.66;4998027;28;20038;-75
2023/04/22 06:20:15;;;;;;;16.58;12.70;;;;;;;8.28;86.93;100705.47;4996465;28;20162;-75
2023/04/22 06:22:40;;;;;;;15.15;12.65;;;;;;;8.30;87.01;100701.03;4998056;28;20038;-75
2023/04/22 06:25:06;;;;;;;14.63;11.27;;;;;;;8.31;87.05;100696.66;4996657;28;20042;-75
2023/04/22 06:27:31;;;;;;;14.02;11.35;;;;;;;8.32;87.07;100699.22;4994359;28;20041;-75
2023/04/22 06:29:57;;;;;;;15.82;12.90;;;;;;;8.34;87.22;100705.25;4982163;28;20046;-75
2023/04/22 06:32:22;;;;;;;14.68;12.25;;;;;;;8.36;87.35;100700.81;4996475;28;20200;-75
2023/04/22 06:34:47;;;;;;;17.70;13.50;;;;;;;8.38;87.47;100692.94;4993468;28;20245;-75
2023/04/22 06:37:13;;;;;;;13.57;11.25;;;;;;;8.39;87.64;100684.22;4987606;28;20348;-75
2023/04/22 06:39:38;;;;;;;16.20;12.77;;;;;;;8.41;87.54;100690.25;4989775;28;20053;-75
2023/04/22 06:42:04;;;;;;;16.42;13.25;;;;;;;8.43;87.88;100698.91;4995253;28;20046;-75
2023/04/22 06:44:30;;;;;;;19.90;14.43;;;;;;;8.45;88.21;100697.94;4988814;28;20035;-75
2023/04/22 06:46:55;;;;;;;17.33;14.18;;;;;;;8.48;88.29;100690.91;4986939;28;20050;-75
2023/04/22 06:49:20;;;;;;;18.85;13.40;;;;;;;8.49;88.43;100693.47;4987114;28;20026;-75
2023/04/22 06:51:46;;;;;;;23.88;17.27;;;;;;;8.52;88.31;100682.94;4994424;28;20050;-75
2023/04/22 06:54:11;;;;;;;22.80;16.70;;;;;;;8.53;88.86;100682.03;4987362;28;20121;-75
2023/04/22 06:56:37;;;;;;;27.48;18.17;;;;;;;8.56;88.97;100681.91;4987936;28;20038;-75
2023/04/22 06:59:02;;;;;;;22.00;17.25;;;;;;;8.60;89.40;100683.53;4990173;28;20352;-75
2023/04/22 07:01:27;;;;;;;25.02;18.50;;;;;;;8.62;89.48;100673.88;4986735;28;20105;-75
2023/04/22 07:03:53;;;;;;;26.38;18.58;;;;;;;8.64;89.52;100679.03;4988228;28;20034;-75
2023/04/22 07:06:18;;;;;;;26.10;19.38;;;;;;;8.67;89.85;100678.91;4989325;28;20034;-75
2023/04/22 07:08:43;;;;;;;22.17;17.00;;;;;;;8.69;89.98;100677.09;4988721;28;20053;-75
2023/04/22 07:11:09;;;;;;;26.15;17.77;;;;;;;8.72;89.90;100677.00;4988479;28;20053;-75
2023/04/22 07:13:34;;;;;;;28.85;19.77;;;;;;;8.74;90.34;100679.56;4994854;28;20268;-75
2023/04/22 07:16:00;;;;;;;30.88;21.65;;;;;;;8.77;91.06;100682.91;4997375;28;20046;-75
2023/04/22 07:18:26;;;;;;;24.77;18.23;;;;;;;8.79;91.46;100681.09;4997432;28;20073;-75
2023/04/22 07:20:51;;;;;;;23.23;17.70;;;;;;;8.83;91.61;100689.69;5001182;28;20066;-75
2023/04/22 07:23:17;;;;;;;23.60;17.42;;;;;;;8.85;91.52;100687.88;5001445;28;20061;-75
2023/04/22 07:25:42;;;;;;;24.42;17.83;;;;;;;8.90;92.55;100680.72;4993519;28;20110;-75
2023/04/22 07:28:08;;;;;;;28.08;18.95;;;;;;;8.93;92.62;100687.56;4989456;28;20034;-75
2023/04/22 07:30:33;;;;;;;22.50;16.75;;;;;;;8.97;93.86;100697.88;4989945;28;20038;-75
2023/04/22 07:32:58;;;;;;;23.85;17.08;;;;;;;9.00;93.15;100697.78;4990259;28;20353;-75
2023/04/22 07:35:24;;;;;;;24.17;17.27;;;;;;;9.03;93.25;100702.03;4988868;28;20038;-75
2023/04/22 07:37:49;;;;;;;26.05;18.33;;;;;;;9.09;94.66;100698.34;4988620;28;20104;-75
2023/04/22 07:40:15;;;;;;;27.05;19.38;;;;;;;9.12;95.37;100696.47;4983854;28;20347;-75
2023/04/22 07:42:40;;;;;;;27.60;18.27;;;;;;;9.16;96.57;100687.59;4991201;28;20241;-75
2023/04/22 07:45:06;;;;;;;23.98;18.83;;;;;;;9.22;97.48;100694.34;4995421;28;20046;-75
2023/04/22 07:47:32;;;;;;;29.88;21.10;;;;;;;9.27;98.29;100688.97;4994160;28;20245;-75
2023/04/22 07:49:57;;;;;;;27.08;19.75;;;;;;;9.33;99.50;100684.38;4990396;28;20034;-75
2023/04/22 07:52:22;;;;;;;28.38;18.88;;;;;;;9.38;99.79;100682.41;4993505;28;20254;-75
2023/04/22 07:54:48;;;;;;;22.10;16.52;;;;;;;9.43;99.01;100682.25;4988432;28;20045;-75
2023/04/22 07:57:13;;;;;;;21.38;16.65;;;;;;;9.50;98.24;100675.88;4990045;28;20137;-75
2023/04/22 07:59:39;;;;;;;23.80;16.20;;;;;;;9.55;97.67;100657.38;4988654;28;20109;-75
2023/04/22 08:02:05;;;;;;;26.33;18.05;;;;;;;9.63;97.28;100649.25;4991112;28;20070;-75
2023/04/22 08:04:30;;;;;;;20.25;14.60;;;;;;;9.70;96.95;100645.47;4994549;28;20046;-75
2023/04/22 08:06:56;;;;;;;19.42;14.65;;;;;;;9.77;97.14;100642.53;4991398;28;20058;-75
2023/04/22 08:09:21;;;;;;;16.67;14.05;;;;;;;9.82;95.44;100646.72;4994655;28;20076;-75
2023/04/22 08:11:47;;;;;;;16.85;14.15;;;;;;;9.84;94.88;100650.13;4995528;28;20053;-75
2023/04/22 08:14:12;;;;;;;19.70;13.75;;;;;;;9.86;94.37;100662.25;4998467;28;20109;-75
2023/04/22 08:16:38;;;;;;;16.90;12.95;;;;;;;9.88;94.71;100662.19;4998521;28;20369;-75
2023/04/22 08:19:04;;;;;;;25.40;13.60;;;;;;;9.91;94.93;100659.44;4997959;28;20133;-75
2023/04/22 08:21:30;;;;;;;13.85;12.00;;;;;;;9.94;95.65;100648.84;4997491;28;20037;-75
2023/04/22 08:23:56;;;;;;;16.67;12.27;;;;;;;9.97;95.51;100661.81;4997607;28;20034;-75
2023/04/22 08:26:21;;;;;;;15.77;13.00;;;;;;;10.03;96.24;100655.47;4999775;28;20125;-75
2023/04/22 08:28:47;;;;;;;16.63;12.05;;;;;;;10.06;95.74;100657.94;4999502;28;20341;-75
2023/04/22 08:31:12;;;;;;;15.80;12.25;;;;;;;10.10;94.94;100655.16;4998597;28;20034;-75
2023/04/22 08:33:40;;;;;;;15.25;13.10;;;;;;;10.14;94.15;100659.34;4998829;28;20101;-75
2023/04/22 08:36:07;;;;;;;14.60;12.33;;;;;;;10.21;93.86;100656.47;4999901;28;20038;-75
2023/04/22 08:38:33;;;;;;;13.50;12.00;;;;;;;10.27;92.64;100654.44;4999696;28;20289;-75
2023/04/22 08:40:59;;;;;;;13.18;11.77;;;;;;;10.35;93.60;100652.41;5000077;28;20046;-75
2023/04/22 08:43:25;;;;;;;13.13;11.32;;;;;;;10.41;93.08;100653.91;4998443;28;20411;-75
2023/04/22 08:45:51;;;;;;;17.83;12.68;;;;;;;10.45;93.09;100646.75;4999559;28;20199;-75
2023/04/22 08:48:18;;;;;;;13.68;11.52;;;;;;;10.51;93.72;100649.97;4999950;28;20288;-75
2023/04/22 08:50:46;;;;;;;13.07;11.13;;;;;;;10.54;91.50;100649.81;4999658;28;20329;-75
2023/04/22 08:53:12;;;;;;;12.43;10.25;;;;;;;10.63;91.27;100635.47;4999967;28;20042;-75
2023/04/22 08:55:38;;;;;;;14.95;11.23;;;;;;;10.69;90.37;100629.97;4999479;28;20454;-75
2023/04/22 08:58:04;;;;;;;13.35;11.27;;;;;;;10.74;89.35;100619.28;4989845;28;20047;-75
2023/04/22 09:00:31;;;;;;;12.38;11.02;;;;;;;10.78;89.20;100612.16;4978730;28;20034;-75
2023/04/22 09:03:01;;;;;;;11.70;10.50;;;;;;;10.81;89.55;100609.41;4979561;28;20037;-75
2023/04/22 09:05:27;;;;;;;14.50;12.45;;;;;;;10.84;89.56;100602.25;4979784;28;20034;-75
2023/04/22 09:07:53;;;;;;;11.90;10.80;;;;;;;10.87;89.28;100596.00;4979611;28;20182;-75
2023/04/22 09:10:18;;;;;;;12.68;10.73;;;;;;;10.88;88.48;100593.31;4978435;28;20039;-75
2023/04/22 09:12:45;;;;;;;11.60;10.45;;;;;;;10.90;88.72;100580.16;4979611;28;20042;-75
2023/04/22 09:15:11;;;;;;;11.45;10.35;;;;;;;10.91;88.28;100585.34;4985800;28;20318;-76
2023/04/22 09:17:37;;;;;;;9.93;9.02;;;;;;;10.93;88.07;100588.72;4998170;28;20069;-75
2023/04/22 09:20:05;;;;;;;9.68;8.63;;;;;;;10.94;87.25;100593.03;4993617;28;20048;-75
2023/04/22 09:22:48;;;;;;;9.73;8.73;;;;;;;10.96;86.22;100585.09;4997895;28;20042;-75
2023/04/22 09:25:18;;;;;;;8.07;7.38;;;;;;;10.95;84.01;100576.41;4992742;28;20084;-75
2023/04/22 09:27:48;;;;;;;9.00;8.20;;;;;;;10.97;84.66;100591.19;4988098;28;20050;-75
2023/04/22 09:30:13;;;;;;;9.60;8.75;;;;;;;10.98;85.52;100596.34;4985978;28;20085;-76
2023/04/22 09:32:39;;;;;;;9.75;8.77;;;;;;;10.98;85.03;100601.59;4994613;28;20079;-74
2023/04/22 09:35:05;;;;;;;9.70;8.65;;;;;;;10.99;84.90;100605.06;4997110;28;20372;-74
2023/04/22 09:37:32;;;;;;;11.15;8.45;;;;;;;11.00;84.55;100602.38;4996346;28;20046;-74
2023/04/22 09:39:58;;;;;;;9.45;8.45;;;;;;;11.02;85.19;100604.94;4998068;28;20038;-74
2023/04/22 09:42:23;;;;;;;10.23;8.27;;;;;;;11.04;84.81;100605.69;4998527;28;20046;-74
2023/04/22 09:44:52;;;;;;;9.48;8.57;;;;;;;11.07;84.44;100624.75;4998415;28;20269;-76
2023/04/22 09:47:25;;;;;;;9.70;8.70;;;;;;;11.12;85.48;100635.03;4993430;28;20316;-74
2023/04/22 09:49:50;;;;;;;11.55;8.40;;;;;;;11.19;86.26;100640.81;4993540;28;20046;-75
2023/04/22 09:52:24;;;;;;;9.85;8.07;;;;;;;11.25;86.04;100646.66;4988837;28;20050;-75
2023/04/22 09:54:50;;;;;;;16.95;9.20;;;;;;;11.30;86.75;100644.66;4989790;28;20113;-75
2023/04/22 09:57:16;;;;;;;16.65;8.32;;;;;;;11.36;86.22;100651.38;4987966;28;20101;-74
2023/04/22 09:59:42;;;;;;;9.65;8.70;;;;;;;11.42;86.37;100651.09;4989342;28;20264;-74
2023/04/22 10:02:08;;;;;;;9.80;8.80;;;;;;;11.46;85.21;100647.44;4993322;28;20049;-74
2023/04/22 10:04:34;;;;;;;10.98;7.70;;;;;;;11.51;84.63;100636.69;4988044;28;20102;-73
2023/04/22 10:07:01;;;;;;;13.60;8.52;;;;;;;11.55;84.75;100637.41;4990387;28;20103;-74
2023/04/22 10:09:27;;;;;;;10.95;8.85;;;;;;;11.58;83.46;100634.63;4990564;28;20042;-74
2023/04/22 10:11:54;;;;;;;9.80;8.70;;;;;;;11.61;83.94;100635.34;4999305;28;20037;-73
2023/04/22 10:14:20;;;;;;;15.38;8.95;;;;;;;11.63;84.62;100638.75;4999789;28;20030;-75
2023/04/22 10:16:46;;;;;;;9.32;8.25;;;;;;;11.64;84.08;100642.19;4990987;28;20042;-74
2023/04/22 10:19:20;;;;;;;8.93;8.07;;;;;;;11.64;83.21;100637.81;4992422;28;20117;-74
2023/04/22 10:21:47;;;;;;;9.50;8.60;;;;;;;11.64;82.29;100636.97;4990080;28;20184;-74
2023/04/22 10:24:18;;;;;;;9.25;8.45;;;;;;;11.60;81.90;100627.53;4991776;28;20057;-74
2023/04/22 10:26:50;;;;;;;9.50;8.60;;;;;;;11.59;82.72;100636.31;4991243;28;20088;-73
2023/04/22 10:29:17;;;;;;;12.02;8.63;;;;;;;11.57;82.78;100649.53;4989974;28;20038;-74
2023/04/22 10:32:13;;;;;;;29.83;9.52;;;;;;;11.56;82.16;100647.81;4996491;28;20061;-74
2023/04/22 10:34:38;;;;;;;21.60;8.90;;;;;;;11.56;84.00;100652.22;4975502;28;20085;-74
2023/04/22 10:37:06;;;;;;;15.85;9.63;;;;;;;11.56;84.26;100657.47;4993654;28;20137;-74
2023/04/22 10:39:31;;;;;;;24.98;9.63;;;;;;;11.56;83.95;100649.59;4991500;28;20407;-76
2023/04/22 10:42:06;;;;;;;29.70;10.13;;;;;;;11.55;84.09;100643.53;4991974;28;20035;-74
2023/04/22 10:44:50;;;;;;;28.17;10.88;;;;;;;11.55;84.32;100640.91;4998235;28;20353;-75
2023/04/22 10:47:35;;;;;;;48.83;12.05;;;;;;;11.54;84.71;100631.31;4999685;28;20042;-75
2023/04/22 10:50:25;;;;;;;62.08;13.18;;;;;;;11.54;85.13;100639.19;4998502;28;20034;-73
2023/04/22 10:52:55;;;;;;;34.80;10.88;;;;;;;11.54;85.33;100641.81;4999647;28;20214;-76
2023/04/22 10:55:21;;;;;;;43.05;10.98;;;;;;;11.55;85.66;100635.66;5003252;28;20083;-75
2023/04/22 10:57:48;;;;;;;28.42;11.10;;;;;;;11.53;84.37;100637.47;5005065;28;20046;-75
2023/04/22 11:00:21;;;;;;;18.58;10.75;;;;;;;11.51;83.96;100640.19;4995223;28;20110;-74
2023/04/22 11:03:05;;;;;;;21.50;12.15;;;;;;;11.50;84.30;100629.78;5004271;28;20045;-74
2023/04/22 11:05:31;;;;;;;53.00;13.48;;;;;;;11.48;84.79;100624.59;5002415;28;20240;-75
2023/04/22 11:08:22;;;;;;;25.88;11.82;;;;;;;11.48;85.95;100626.38;4999230;28;20034;-74
2023/04/22 11:10:49;;;;;;;77.65;14.48;;;;;;;11.48;86.89;100639.50;4997391;28;20329;-74
2023/04/22 11:13:22;;;;;;;35.15;12.77;;;;;;;11.47;86.58;100643.84;4997669;28;20342;-75
2023/04/22 11:15:50;;;;;;;27.38;12.93;;;;;;;11.43;85.06;100647.56;5001031;28;20041;-75